createdAt,value
2022-11-20T00:01:16.740Z,6.57
2022-11-20T00:03:43.838Z,6.00
2022-11-20T00:06:13.815Z,6.90
2022-11-20T00:08:41.205Z,6.93
2022-11-20T00:11:16.189Z,8.23
2022-11-20T00:13:45.031Z,7.00
2022-11-20T00:16:13.281Z,6.17
2022-11-20T00:18:40.512Z,7.67
2022-11-20T00:21:12.048Z,9.10
2022-11-20T00:23:38.933Z,9.47
2022-11-20T00:26:12.157Z,9.37
2022-11-20T00:28:39.381Z,7.30
2022-11-20T00:31:16.479Z,6.27
2022-11-20T00:33:44.429Z,8.83
2022-11-20T00:36:16.396Z,6.90
2022-11-20T00:38:44.143Z,6.67
2022-11-20T00:41:13.569Z,6.03
2022-11-20T00:43:40.644Z,5.80
2022-11-20T00:46:10.478Z,6.63
2022-11-20T00:48:37.522Z,7.07
2022-11-20T00:51:04.597Z,6.17
2022-11-20T00:53:31.801Z,6.43
2022-11-20T00:56:04.261Z,4.83
2022-11-20T00:58:33.341Z,7.50
2022-11-20T01:01:07.071Z,5.07
2022-11-20T01:03:35.318Z,5.33
2022-11-20T01:06:08.351Z,7.53
2022-11-20T01:08:36.329Z,4.93
2022-11-20T01:11:14.357Z,4.50
2022-11-20T01:13:42.119Z,5.30
2022-11-20T01:16:15.666Z,5.37
2022-11-20T01:18:45.213Z,5.10
2022-11-20T01:21:14.731Z,5.70
2022-11-20T01:23:43.285Z,6.83
2022-11-20T01:26:13.169Z,5.40
2022-11-20T01:28:41.156Z,6.37
2022-11-20T01:31:19.640Z,6.23
2022-11-20T01:33:47.915Z,7.80
2022-11-20T01:36:15.983Z,7.80
2022-11-20T01:38:43.753Z,8.27
2022-11-20T01:41:32.504Z,7.40
2022-11-20T01:44:00.673Z,8.53
2022-11-20T01:46:27.940Z,7.20
2022-11-20T01:49:11.755Z,6.20
2022-11-20T01:51:53.997Z,6.50
2022-11-20T01:54:36.792Z,6.67
2022-11-20T01:57:07.146Z,6.83
2022-11-20T01:59:35.099Z,5.47
2022-11-20T02:02:01.948Z,6.70
2022-11-20T02:04:28.832Z,6.70
2022-11-20T02:07:03.638Z,7.23
2022-11-20T02:09:30.490Z,6.03
2022-11-20T02:11:58.516Z,6.57
2022-11-20T02:14:26.303Z,8.43
2022-11-20T02:16:54.691Z,7.77
2022-11-20T02:19:28.355Z,6.57
2022-11-20T02:22:24.426Z,6.97
2022-11-20T02:24:52.189Z,7.87
2022-11-20T02:27:19.511Z,8.70
2022-11-20T02:29:51.662Z,7.70
2022-11-20T02:32:34.498Z,7.67
2022-11-20T02:35:30.522Z,6.43
2022-11-20T02:38:00.156Z,7.53
2022-11-20T02:40:27.008Z,5.70
2022-11-20T02:42:55.010Z,6.37
2022-11-20T02:45:22.013Z,6.67
2022-11-20T02:47:48.810Z,6.17
2022-11-20T02:50:16.235Z,6.60
2022-11-20T02:52:43.339Z,6.20
2022-11-20T02:55:10.360Z,5.43
2022-11-20T02:57:37.257Z,7.10
2022-11-20T03:00:05.611Z,9.03
2022-11-20T03:02:32.933Z,7.87
2022-11-20T03:04:59.954Z,8.30
2022-11-20T03:07:26.794Z,6.43
2022-11-20T03:09:53.644Z,5.70
2022-11-20T03:12:20.676Z,5.23
2022-11-20T03:14:52.659Z,5.87
2022-11-20T03:17:20.143Z,6.20
2022-11-20T03:19:46.951Z,7.57
2022-11-20T03:22:13.758Z,6.70
2022-11-20T03:24:40.614Z,8.73
2022-11-20T03:27:07.563Z,7.37
2022-11-20T03:29:35.839Z,8.93
2022-11-20T03:32:02.680Z,7.90
2022-11-20T03:34:29.499Z,7.80
2022-11-20T03:36:56.280Z,6.30
2022-11-20T03:39:23.272Z,6.50
2022-11-20T03:41:50.275Z,6.43
2022-11-20T03:44:17.260Z,6.57
2022-11-20T03:46:44.103Z,5.67
2022-11-20T03:49:10.982Z,6.30
2022-11-20T03:51:37.930Z,6.53
2022-11-20T03:54:09.421Z,5.90
2022-11-20T03:56:38.593Z,4.70
2022-11-20T03:59:06.136Z,5.13
2022-11-20T04:01:35.434Z,4.53
2022-11-20T04:04:02.912Z,5.67
2022-11-20T04:06:37.740Z,4.37
2022-11-20T04:09:06.292Z,6.87
2022-11-20T04:11:35.832Z,6.80
2022-11-20T04:14:05.862Z,6.50
2022-11-20T04:16:35.248Z,5.17
2022-11-20T04:19:04.272Z,5.93
2022-11-20T04:21:31.343Z,5.77
2022-11-20T04:23:58.589Z,6.60
2022-11-20T04:26:27.943Z,7.40
2022-11-20T04:28:55.297Z,5.93
2022-11-20T04:31:25.137Z,4.00
2022-11-20T04:33:52.381Z,5.90
2022-11-20T04:36:22.011Z,5.00
2022-11-20T04:38:56.750Z,5.47
2022-11-20T04:41:29.735Z,6.67
2022-11-20T04:44:03.960Z,5.40
2022-11-20T04:46:33.044Z,4.83
2022-11-20T04:49:00.053Z,3.83
2022-11-20T04:51:27.536Z,9.10
2022-11-20T04:53:54.724Z,6.07
2022-11-20T04:56:21.517Z,5.07
2022-11-20T04:58:48.360Z,3.40
2022-11-20T05:01:18.473Z,6.10
2022-11-20T05:03:46.070Z,5.37
2022-11-20T05:06:14.584Z,5.93
2022-11-20T05:08:42.139Z,6.27
2022-11-20T05:11:11.683Z,4.80
2022-11-20T05:13:39.557Z,5.47
2022-11-20T05:16:14.720Z,4.10
2022-11-20T05:18:42.730Z,4.97
2022-11-20T05:21:10.612Z,3.77
2022-11-20T05:23:37.943Z,5.03
2022-11-20T05:26:05.761Z,5.90
2022-11-20T05:28:33.440Z,6.40
2022-11-20T05:31:07.301Z,4.63
2022-11-20T05:33:36.057Z,5.40
2022-11-20T05:36:04.957Z,4.13
2022-11-20T05:38:32.162Z,4.57
2022-11-20T05:41:09.240Z,5.33
2022-11-20T05:43:37.383Z,5.10
2022-11-20T05:46:05.306Z,5.20
2022-11-20T05:48:32.703Z,5.40
2022-11-20T05:51:00.793Z,5.03
2022-11-20T05:53:27.931Z,5.80
2022-11-20T05:56:09.128Z,5.20
2022-11-20T05:58:36.445Z,4.20
2022-11-20T06:01:21.349Z,4.40
2022-11-20T06:03:50.314Z,6.20
2022-11-20T06:06:18.309Z,6.97
2022-11-20T06:08:45.537Z,5.83
2022-11-20T06:11:14.001Z,5.70
2022-11-20T06:13:42.609Z,4.90
2022-11-20T06:16:11.248Z,6.27
2022-11-20T06:18:38.695Z,4.70
2022-11-20T06:21:08.078Z,4.80
2022-11-20T06:23:35.931Z,4.80
2022-11-20T06:26:08.959Z,4.77
2022-11-20T06:28:36.486Z,4.90
2022-11-20T06:31:04.351Z,4.50
2022-11-20T06:33:31.233Z,4.30
2022-11-20T06:36:07.287Z,5.17
2022-11-20T06:38:37.332Z,4.23
2022-11-20T06:41:08.107Z,4.33
2022-11-20T06:43:34.988Z,5.00
2022-11-20T06:46:01.913Z,4.57
2022-11-20T06:48:29.674Z,3.67
2022-11-20T06:50:57.501Z,4.50
2022-11-20T06:53:24.835Z,5.97
2022-11-20T06:55:52.783Z,5.50
2022-11-20T06:58:19.932Z,4.63
2022-11-20T07:00:46.952Z,4.73
2022-11-20T07:03:13.993Z,5.70
2022-11-20T07:05:41.225Z,5.77
2022-11-20T07:08:08.555Z,5.80
2022-11-20T07:10:36.191Z,6.13
2022-11-20T07:13:03.190Z,7.53
2022-11-20T07:15:30.113Z,8.17
2022-11-20T07:18:00.240Z,8.00
2022-11-20T07:20:27.524Z,7.67
2022-11-20T07:22:56.169Z,5.63
2022-11-20T07:25:24.015Z,6.70
2022-11-20T07:27:50.980Z,6.40
2022-11-20T07:30:18.558Z,7.10
2022-11-20T07:32:51.498Z,6.00
2022-11-20T07:35:18.505Z,8.43
2022-11-20T07:37:46.682Z,9.83
2022-11-20T07:40:14.566Z,7.37
2022-11-20T07:42:52.396Z,8.90
2022-11-20T07:45:20.805Z,4.57
2022-11-20T07:47:47.779Z,5.53
2022-11-20T07:50:15.180Z,5.47
2022-11-20T07:52:42.152Z,5.00
2022-11-20T07:55:10.669Z,6.00
2022-11-20T07:57:37.771Z,6.33
2022-11-20T08:00:06.865Z,7.10
2022-11-20T08:02:33.686Z,7.43
2022-11-20T08:05:00.605Z,6.77
2022-11-20T08:07:27.535Z,6.53
2022-11-20T08:09:54.576Z,6.50
2022-11-20T08:12:41.113Z,6.00
2022-11-20T08:15:13.034Z,6.97
2022-11-20T08:17:40.206Z,5.20
2022-11-20T08:20:07.621Z,6.57
2022-11-20T08:22:34.493Z,5.70
2022-11-20T08:25:01.409Z,5.30
2022-11-20T08:27:28.363Z,5.13
2022-11-20T08:29:55.627Z,6.47
2022-11-20T08:32:22.761Z,6.07
2022-11-20T08:34:49.701Z,7.80
2022-11-20T08:37:16.612Z,5.20
2022-11-20T08:39:43.468Z,4.37
2022-11-20T08:42:10.412Z,6.73
2022-11-20T08:44:37.332Z,5.17
2022-11-20T08:47:04.186Z,8.50
2022-11-20T08:49:31.137Z,6.27
2022-11-20T08:51:58.293Z,7.10
2022-11-20T08:54:38.079Z,7.30
2022-11-20T08:57:04.914Z,5.63
2022-11-20T09:00:03.914Z,8.17
2022-11-20T09:02:18.902Z,5.83
2022-11-20T09:04:45.959Z,6.50
2022-11-20T09:07:13.127Z,6.70
2022-11-20T09:09:40.356Z,6.80
2022-11-20T09:12:07.243Z,10.20
2022-11-20T09:14:34.672Z,9.17
2022-11-20T09:17:01.517Z,8.07
2022-11-20T09:19:36.484Z,8.20
2022-11-20T09:22:03.954Z,6.93
2022-11-20T09:24:30.940Z,5.93
2022-11-20T09:26:57.822Z,7.27
2022-11-20T09:29:24.672Z,5.40
2022-11-20T09:31:51.764Z,5.43
2022-11-20T09:34:18.650Z,6.50
2022-11-20T09:36:46.008Z,4.87
2022-11-20T09:39:12.892Z,4.50
2022-11-20T09:41:42.513Z,5.70
2022-11-20T09:44:31.388Z,6.10
2022-11-20T09:47:09.126Z,8.00
2022-11-20T09:50:05.071Z,6.43
2022-11-20T09:52:46.745Z,6.87
2022-11-20T09:55:15.871Z,5.23
2022-11-20T09:57:46.812Z,5.50
2022-11-20T10:00:15.651Z,8.20
2022-11-20T10:02:51.849Z,7.80
2022-11-20T10:05:45.120Z,6.50
2022-11-20T10:08:23.772Z,7.20
2022-11-20T10:11:38.218Z,6.27
2022-11-20T10:14:34.337Z,4.97
2022-11-20T10:17:40.485Z,6.20
2022-11-20T10:20:54.986Z,7.70
2022-11-20T10:23:33.238Z,8.30
2022-11-20T10:26:22.633Z,7.40
2022-11-20T10:29:09.043Z,7.13
2022-11-20T10:31:39.149Z,6.30
2022-11-20T10:34:34.916Z,8.93
2022-11-20T10:37:25.433Z,7.30
2022-11-20T10:40:06.782Z,7.00
2022-11-20T10:42:43.327Z,16.10
2022-11-20T10:45:25.518Z,13.27
2022-11-20T10:48:11.754Z,19.40
2022-11-20T10:50:47.098Z,16.20
2022-11-20T10:53:39.015Z,17.77
2022-11-20T10:56:27.735Z,10.73
2022-11-20T10:59:00.756Z,19.33
2022-11-20T11:01:29.102Z,12.63
2022-11-20T11:03:58.120Z,7.80
2022-11-20T11:06:41.525Z,5.93
2022-11-20T11:09:17.636Z,11.37
2022-11-20T11:11:44.620Z,8.10
2022-11-20T11:14:16.358Z,7.77
2022-11-20T11:16:58.614Z,9.87
2022-11-20T11:19:25.936Z,9.20
2022-11-20T11:21:56.837Z,10.03
2022-11-20T11:24:48.269Z,8.13
2022-11-20T11:27:18.998Z,7.17
2022-11-20T11:29:47.166Z,7.50
2022-11-20T11:32:23.194Z,6.43
2022-11-20T11:35:01.300Z,6.00
2022-11-20T11:37:37.941Z,7.90
2022-11-20T11:40:24.213Z,5.80
2022-11-20T11:42:57.398Z,5.60
2022-11-20T11:45:25.304Z,5.80
2022-11-20T11:47:54.950Z,8.17
2022-11-20T11:50:26.933Z,8.53
2022-11-20T11:53:08.529Z,6.37
2022-11-20T11:56:05.135Z,14.40
2022-11-20T11:58:51.077Z,6.97
2022-11-20T12:01:42.886Z,6.10
2022-11-20T12:04:20.519Z,6.93
2022-11-20T12:06:52.522Z,8.47
2022-11-20T12:09:24.374Z,10.83
2022-11-20T12:11:59.911Z,6.93
2022-11-20T12:14:37.715Z,5.80
2022-11-20T12:17:05.064Z,5.40
2022-11-20T12:19:36.944Z,7.73
2022-11-20T12:22:14.403Z,6.70
2022-11-20T12:24:58.547Z,5.20
2022-11-20T12:27:40.483Z,6.87
2022-11-20T12:30:12.379Z,6.27
2022-11-20T12:32:50.344Z,5.53
2022-11-20T12:35:32.253Z,7.70
2022-11-20T12:38:43.230Z,5.23
2022-11-20T12:42:06.447Z,5.70
2022-11-20T12:45:10.693Z,7.47
2022-11-20T12:47:58.733Z,6.57
2022-11-20T12:51:15.520Z,8.47
2022-11-20T12:54:01.365Z,6.73
2022-11-20T12:56:40.292Z,8.90
2022-11-20T12:59:17.813Z,6.60
2022-11-20T13:02:02.180Z,5.70
2022-11-20T13:04:31.820Z,10.33
2022-11-20T13:06:59.256Z,20.87
2022-11-20T13:09:27.409Z,21.90
2022-11-20T13:12:06.193Z,18.50
2022-11-20T13:14:56.140Z,11.73
2022-11-20T13:17:46.657Z,16.77
2022-11-20T13:20:17.018Z,12.77
2022-11-20T13:22:49.295Z,3.10
2022-11-20T13:25:34.420Z,4.50
2022-11-20T13:28:26.054Z,16.40
2022-11-20T13:30:55.164Z,19.43
2022-11-20T13:33:35.380Z,20.57
2022-11-20T13:36:04.078Z,14.80
2022-11-20T13:38:47.388Z,15.70
2022-11-20T13:41:36.243Z,27.33
2022-11-20T13:44:10.711Z,19.17
2022-11-20T13:46:42.004Z,9.50
2022-11-20T13:49:16.172Z,26.80
2022-11-20T13:51:59.795Z,30.73
2022-11-20T13:54:35.708Z,5.43
2022-11-20T13:57:58.608Z,11.73
2022-11-20T14:00:26.574Z,28.80
2022-11-20T14:03:13.208Z,18.40
2022-11-20T14:05:49.424Z,7.77
2022-11-20T14:08:43.140Z,8.93
2022-11-20T14:11:22.424Z,8.73
2022-11-20T14:14:04.041Z,7.30
2022-11-20T14:16:36.317Z,10.10
2022-11-20T14:19:21.424Z,8.90
2022-11-20T14:21:54.828Z,8.43
2022-11-20T14:24:26.649Z,7.53
2022-11-20T14:26:53.738Z,7.70
2022-11-20T14:29:30.598Z,6.83
2022-11-20T14:31:58.484Z,6.30
2022-11-20T14:34:36.540Z,6.27
2022-11-20T14:37:16.339Z,8.87
2022-11-20T14:39:50.710Z,7.33
2022-11-20T14:42:23.939Z,8.17
2022-11-20T14:44:53.507Z,8.30
2022-11-20T14:47:24.235Z,10.40
2022-11-20T14:49:52.528Z,8.80
2022-11-20T14:52:27.906Z,7.17
2022-11-20T14:54:57.359Z,9.27
2022-11-20T14:57:30.727Z,6.90
2022-11-20T15:00:15.972Z,8.70
2022-11-20T15:02:45.438Z,8.73
2022-11-20T15:05:13.025Z,8.40
2022-11-20T15:07:46.581Z,5.67
2022-11-20T15:10:22.223Z,6.17
2022-11-20T15:12:54.762Z,6.30
2022-11-20T15:15:30.592Z,6.33
2022-11-20T15:17:58.234Z,6.07
2022-11-20T15:20:29.463Z,7.30
2022-11-20T15:22:56.326Z,6.67
2022-11-20T15:25:25.439Z,7.50
2022-11-20T15:27:58.230Z,6.00
2022-11-20T15:30:25.500Z,5.50
2022-11-20T15:32:52.341Z,9.87
2022-11-20T15:35:19.271Z,11.23
2022-11-20T15:37:46.171Z,5.80
2022-11-20T15:40:13.316Z,8.90
2022-11-20T15:43:00.118Z,8.13
2022-11-20T15:45:28.672Z,6.80
2022-11-20T15:47:55.558Z,8.30
2022-11-20T15:50:25.506Z,6.83
2022-11-20T15:52:52.394Z,5.60
2022-11-20T15:55:19.284Z,8.07
2022-11-20T15:57:46.708Z,7.67
2022-11-20T16:00:14.823Z,6.87
2022-11-20T16:02:43.015Z,7.93
2022-11-20T16:05:14.463Z,8.87
2022-11-20T16:07:41.315Z,7.47
2022-11-20T16:10:08.730Z,8.40
2022-11-20T16:12:54.011Z,6.10
2022-11-20T16:15:39.885Z,6.70
2022-11-20T16:18:11.217Z,6.83
2022-11-20T16:20:38.344Z,6.03
2022-11-20T16:23:05.878Z,7.00
2022-11-20T16:25:32.960Z,6.37
2022-11-20T16:27:59.952Z,6.73
2022-11-20T16:30:27.213Z,5.30
2022-11-20T16:32:54.148Z,8.00
2022-11-20T16:35:21.006Z,5.70
2022-11-20T16:37:47.821Z,7.77
2022-11-20T16:40:15.178Z,5.50
2022-11-20T16:42:42.001Z,5.73
2022-11-20T16:45:09.335Z,4.93
2022-11-20T16:47:36.201Z,4.70
2022-11-20T16:50:05.428Z,5.00
2022-11-20T16:52:32.428Z,4.23
2022-11-20T16:54:59.480Z,5.93
2022-11-20T16:57:32.505Z,4.73
2022-11-20T17:00:02.572Z,7.00
2022-11-20T17:02:29.897Z,6.60
2022-11-20T17:04:56.806Z,4.40
2022-11-20T17:07:23.803Z,3.90
2022-11-20T17:09:50.806Z,5.80
2022-11-20T17:12:18.095Z,4.43
2022-11-20T17:14:45.296Z,4.90
2022-11-20T17:17:12.235Z,6.00
2022-11-20T17:19:39.311Z,5.40
2022-11-20T17:22:06.422Z,4.37
2022-11-20T17:24:34.237Z,6.23
2022-11-20T17:27:01.679Z,7.50
2022-11-20T17:29:28.679Z,6.43
2022-11-20T17:31:55.839Z,5.23
2022-11-20T17:34:23.189Z,5.20
2022-11-20T17:36:55.626Z,7.13
2022-11-20T17:39:22.545Z,5.70
2022-11-20T17:42:09.348Z,11.00
2022-11-20T17:44:36.223Z,5.30
2022-11-20T17:47:12.382Z,5.43
2022-11-20T18:20:35.138Z,11.03
2022-11-20T19:07:17.459Z,6.13
2022-11-20T19:11:23.855Z,9.17
2022-11-20T20:04:58.808Z,10.50
2022-11-20T20:10:36.459Z,8.50
2022-11-20T21:09:04.617Z,11.37
2022-11-20T23:04:16.742Z,9.33
2022-11-20T23:06:43.590Z,7.80
2022-11-20T23:09:12.820Z,6.03
2022-11-20T23:11:39.743Z,6.30
2022-11-20T23:14:12.103Z,7.47
2022-11-20T23:16:39.116Z,8.50
2022-11-20T23:19:08.554Z,8.20
2022-11-20T23:21:38.160Z,7.77
2022-11-20T23:24:06.051Z,6.90
2022-11-20T23:26:35.825Z,5.33
2022-11-20T23:29:03.334Z,5.90
2022-11-20T23:31:31.950Z,6.97
2022-11-20T23:33:59.306Z,8.20
2022-11-20T23:36:26.670Z,9.00
2022-11-20T23:38:53.649Z,8.27
2022-11-20T23:41:20.583Z,7.93
2022-11-20T23:43:47.529Z,6.80
2022-11-20T23:46:16.755Z,6.73
2022-11-20T23:48:45.249Z,6.07
2022-11-20T23:51:13.074Z,6.07
2022-11-20T23:53:39.954Z,7.00
2022-11-20T23:56:07.351Z,5.73
2022-11-20T23:58:38.659Z,7.20
